Terminal Aerodrome Forecast
Issued by NWS

Home | Current Version | Previous Version | Text Only | Print | Product List | Glossary On
Versions: 1 2 3 4 5 6 7 8 9 10 11 12 13 14 15 16 17 18 19 20 21 22 23 24 25 26 27 28 29 30
687
FTUS46 KLOX 221747
TAFPMD
TAF
KPMD 221747Z 2218/2318 20016KT P6SM FEW035 SCT120
     FM222200 12018G28KT 3SM +RA BR BKN015 OVC035
     FM230500 21015G25KT 4SM -RA BKN012 OVC025
     FM230900 23022KT 4SM -SHRA BR BKN035 PROB30 2309/2312 4SM -TSRA
      BKN025CB=

USA.gov is the U.S. government's official web portal to all federal, state and local government web resources and services.